KNYL

Yuma MCAS / Yuma International Airport

Yuma, Arizona, USA
METAR KNYL 161757Z 07005KT 7SM SCT050 SCT200 16/13 A3024 RMK AO2 SLP238 T01610128 10161 20100 $
Observed Flight Rules
Jan-16 @ 17:57 UTC (26 minutes ago) Visual Flight Rules
Wind Visibility Clouds
70° at 5 knots 7 miles
  • Scattered at 5,000' AGL
  • Scattered at 20,000' AGL
Temperatures Readings
Current 16°C / 61°F
Dewpoint 13°C / 55°F
Humidity 83%
Altimeter 30.24" Hg
Pressure 1023.8 hPa
Elevation 65
METAR KNYL 161757Z 07005KT 7SM SCT050 SCT200 16/13 A3024 RMK AO2 SLP238 T01610128 10161 20100 $
Observed Flight Rules
Jan-16 @ 17:57 UTC
(26 minutes ago)
VFR
Wind Visibility
70° at 5 knots 7 miles
Clouds
  • Scattered at 5,000' AGL
  • Scattered at 20,000' AGL
Temperature Dewpoint
16°C / 61°F 13°C / 55°F
Humidity Altimeter Pressure
83% 30.24" Hg 1023.8 hPa